Time;durP1;ratioP1;P1;durP2;ratioP2;P2;SDS_P1;SDS_P2;PMS_P1;PMS_P2;Temp;Humidity;BMP_temperature;BMP_pressure;BME280_temperature;BME280_humidity;BME280_pressure;Samples;Min_cycle;Max_cycle;Signal;HPM_P1;HPM_P2
2022/12/05 00:00:56;;;;;;;15.05;10.85;;;10.90;82.60;;;;;;5016638;28;20074;-82
2022/12/05 00:03:22;;;;;;;13.65;9.95;;;10.90;82.60;;;;;;5032239;28;20447;-82
2022/12/05 00:05:47;;;;;;;15.48;10.40;;;10.80;82.70;;;;;;5016348;28;20441;-81
2022/12/05 00:08:13;;;;;;;15.35;10.38;;;10.80;82.70;;;;;;5015070;28;20076;-82
2022/12/05 00:10:39;;;;;;;13.63;10.02;;;10.80;82.80;;;;;;5028589;28;20025;-81
2022/12/05 00:13:05;;;;;;;14.95;10.43;;;10.80;82.60;;;;;;5016011;28;20038;-82
2022/12/05 00:15:30;;;;;;;15.52;10.07;;;10.80;82.80;;;;;;5016521;28;20026;-81
2022/12/05 00:17:56;;;;;;;12.98;9.70;;;10.90;82.80;;;;;;5013847;28;20029;-81
2022/12/05 00:20:22;;;;;;;15.27;10.50;;;10.80;82.70;;;;;;5012113;28;20049;-81
2022/12/05 00:22:47;;;;;;;14.73;10.48;;;10.80;82.60;;;;;;5013637;28;20050;-82
2022/12/05 00:25:13;;;;;;;15.57;10.55;;;10.80;83.00;;;;;;5015264;28;20022;-82
2022/12/05 00:27:38;;;;;;;14.73;10.63;;;10.80;82.80;;;;;;5015219;28;20120;-81
2022/12/05 00:30:05;;;;;;;13.60;10.10;;;10.80;82.90;;;;;;5018040;28;20045;-82
2022/12/05 00:32:31;;;;;;;15.63;10.23;;;10.80;82.90;;;;;;5019636;28;20022;-82
2022/12/05 00:34:57;;;;;;;14.90;10.20;;;10.80;82.70;;;;;;5035200;28;20022;-81
2022/12/05 00:37:22;;;;;;;15.70;10.93;;;10.80;83.40;;;;;;5018931;28;20022;-81
2022/12/05 00:39:48;;;;;;;13.95;10.18;;;10.80;82.80;;;;;;5019524;28;20028;-81
2022/12/05 00:42:14;;;;;;;14.45;10.35;;;10.80;82.80;;;;;;5017173;28;20026;-82
2022/12/05 00:44:39;;;;;;;15.00;10.75;;;10.80;82.50;;;;;;5019256;28;20037;-82
2022/12/05 00:47:05;;;;;;;16.10;10.68;;;10.90;82.40;;;;;;5020043;28;20692;-81
2022/12/05 00:49:30;;;;;;;13.93;9.98;;;10.80;82.30;;;;;;5032957;28;20478;-81
2022/12/05 00:51:56;;;;;;;13.68;9.88;;;10.90;82.20;;;;;;5018881;28;20061;-82
2022/12/05 00:54:21;;;;;;;14.63;10.23;;;10.80;82.10;;;;;;5017888;28;20080;-82
2022/12/05 00:56:47;;;;;;;14.38;10.15;;;10.90;82.10;;;;;;5031492;28;20079;-82
2022/12/05 00:59:16;;;;;;;13.55;9.68;;;10.90;82.00;;;;;;5037166;28;20029;-81
2022/12/05 01:01:42;;;;;;;14.93;10.13;;;10.90;82.00;;;;;;5035685;28;20162;-82
2022/12/05 01:04:26;;;;;;;14.35;10.35;;;10.90;81.90;;;;;;5039267;28;20363;-81
2022/12/05 01:06:57;;;;;;;14.85;10.02;;;10.90;82.00;;;;;;5037335;28;20396;-82
2022/12/05 01:09:23;;;;;;;13.98;10.00;;;10.80;82.10;;;;;;5036837;28;20036;-81
2022/12/05 01:11:49;;;;;;;14.65;10.25;;;10.90;82.30;;;;;;5034931;28;20025;-81
2022/12/05 01:14:17;;;;;;;14.82;10.25;;;10.90;82.40;;;;;;5037323;28;20072;-81
2022/12/05 01:16:45;;;;;;;13.50;9.77;;;10.80;82.40;;;;;;5037959;28;20033;-82
2022/12/05 01:19:19;;;;;;;13.65;9.55;;;10.80;82.50;;;;;;5036061;28;20029;-81
2022/12/05 01:21:45;;;;;;;14.00;10.30;;;10.80;82.50;;;;;;5014941;28;20036;-81
2022/12/05 01:24:11;;;;;;;13.98;10.30;;;10.80;82.60;;;;;;5016728;28;20557;-81
2022/12/05 01:26:38;;;;;;;13.40;9.80;;;10.80;82.60;;;;;;5017845;28;20078;-81
2022/12/05 01:29:04;;;;;;;13.13;9.95;;;10.80;82.60;;;;;;5016197;28;20500;-81
2022/12/05 01:31:33;;;;;;;13.90;10.05;;;10.70;82.70;;;;;;5027784;28;20025;-81
2022/12/05 01:34:00;;;;;;;14.18;9.73;;;10.80;82.70;;;;;;5036156;28;20031;-81
2022/12/05 01:36:26;;;;;;;14.90;10.52;;;10.80;82.70;;;;;;5036629;28;20049;-81
2022/12/05 01:38:52;;;;;;;13.75;9.77;;;10.70;82.70;;;;;;5038211;28;20037;-81
2022/12/05 01:41:22;;;;;;;14.82;9.82;;;10.60;82.60;;;;;;5035323;28;20033;-81
2022/12/05 01:44:03;;;;;;;15.43;10.25;;;10.80;82.90;;;;;;5036170;28;20033;-81
2022/12/05 01:46:32;;;;;;;13.43;9.48;;;10.70;82.70;;;;;;5036803;28;20026;-82
2022/12/05 01:49:08;;;;;;;14.20;10.05;;;10.80;82.80;;;;;;5036681;28;20029;-81
2022/12/05 01:51:36;;;;;;;12.45;9.50;;;10.70;82.80;;;;;;5038193;28;20036;-82
2022/12/05 01:54:04;;;;;;;13.50;9.57;;;10.70;82.80;;;;;;5042734;28;20168;-83
2022/12/05 01:56:31;;;;;;;12.90;9.23;;;10.70;82.80;;;;;;5040628;28;20171;-82
2022/12/05 01:58:58;;;;;;;14.05;10.05;;;10.70;82.80;;;;;;5040666;28;20052;-82
2022/12/05 02:01:24;;;;;;;14.43;10.30;;;10.70;82.80;;;;;;5040863;28;20026;-82
2022/12/05 02:03:53;;;;;;;14.32;9.25;;;10.70;82.80;;;;;;5039237;28;20025;-82
2022/12/05 02:06:19;;;;;;;14.85;10.38;;;10.70;82.90;;;;;;5039744;28;20025;-83
2022/12/05 02:08:46;;;;;;;14.27;10.18;;;10.70;82.80;;;;;;5040959;28;20056;-82
2022/12/05 02:11:12;;;;;;;13.80;10.05;;;10.70;82.80;;;;;;5035949;28;20049;-82
2022/12/05 02:13:52;;;;;;;14.10;10.15;;;10.70;82.90;;;;;;5035528;28;20025;-82
2022/12/05 02:16:32;;;;;;;14.68;10.10;;;10.70;82.80;;;;;;5040629;28;20033;-81
2022/12/05 02:19:55;;;;;;;14.20;10.23;;;10.70;82.80;;;;;;5040563;28;20033;-83
2022/12/05 02:23:11;;;;;;;14.40;10.35;;;10.70;82.70;;;;;;5040674;28;20047;-82
2022/12/05 02:26:15;;;;;;;13.82;9.70;;;10.70;82.80;;;;;;4961734;28;20157;-82
2022/12/05 02:28:53;;;;;;;13.95;9.98;;;10.70;82.80;;;;;;5037213;28;20052;-82
2022/12/05 02:31:45;;;;;;;12.25;9.20;;;10.70;82.80;;;;;;5040111;28;20045;-82
2022/12/05 02:34:22;;;;;;;13.38;9.77;;;10.70;82.80;;;;;;5038892;28;20500;-82
2022/12/05 02:36:55;;;;;;;13.90;9.55;;;10.70;82.80;;;;;;5034868;28;20040;-83
2022/12/05 02:39:42;;;;;;;14.30;10.02;;;10.70;82.90;;;;;;5039638;28;20057;-83
2022/12/05 02:42:14;;;;;;;14.23;9.75;;;10.70;82.80;;;;;;5039684;28;20033;-81
2022/12/05 02:44:44;;;;;;;;;;;10.70;82.80;;;;;;5039970;28;20032;-81
2022/12/05 02:47:12;;;;;;;14.95;10.25;;;10.70;82.80;;;;;;5037417;28;19952;-82
2022/12/05 02:49:41;;;;;;;13.75;9.90;;;10.70;82.80;;;;;;5038224;28;20505;-81
2022/12/05 02:52:10;;;;;;;14.50;10.45;;;10.70;82.80;;;;;;5040557;28;20516;-83
2022/12/05 02:54:39;;;;;;;13.23;9.27;;;10.70;82.80;;;;;;5040663;28;20017;-82
2022/12/05 02:57:07;;;;;;;13.75;9.57;;;10.70;82.80;;;;;;5039171;28;20473;-82
2022/12/05 02:59:33;;;;;;;13.93;9.82;;;10.70;82.80;;;;;;5040367;28;20374;-82
2022/12/05 03:01:58;;;;;;;14.50;10.10;;;10.70;82.70;;;;;;5039230;28;20025;-82
2022/12/05 03:04:25;;;;;;;14.02;9.93;;;10.70;82.80;;;;;;5037918;28;20032;-83
2022/12/05 03:06:58;;;;;;;13.88;10.05;;;10.70;82.70;;;;;;5038576;28;20042;-82
2022/12/05 03:09:34;;;;;;;13.63;9.88;;;10.70;82.70;;;;;;5037289;28;20032;-82
2022/12/05 03:12:16;;;;;;;13.32;9.70;;;10.70;82.50;;;;;;5038166;28;20028;-82
2022/12/05 03:14:51;;;;;;;14.43;10.00;;;10.70;82.40;;;;;;5022900;28;20029;-82
2022/12/05 03:17:22;;;;;;;12.40;9.30;;;10.70;82.40;;;;;;5036958;28;20030;-82
2022/12/05 03:20:03;;;;;;;14.40;9.77;;;10.80;82.40;;;;;;5038317;28;20029;-81
2022/12/05 03:22:39;;;;;;;13.95;10.00;;;10.80;82.30;;;;;;5036745;28;20291;-81
2022/12/05 03:25:05;;;;;;;12.73;9.02;;;10.80;82.20;;;;;;5038250;28;20029;-81
2022/12/05 03:27:58;;;;;;;12.48;8.65;;;10.80;82.10;;;;;;5037220;28;20021;-81
2022/12/05 03:30:24;;;;;;;12.88;9.23;;;10.80;82.10;;;;;;5035289;28;20021;-82
2022/12/05 03:32:58;;;;;;;13.73;9.93;;;10.80;82.10;;;;;;5034275;28;20025;-82
2022/12/05 03:35:53;;;;;;;12.65;9.43;;;10.80;82.20;;;;;;5032284;28;20500;-82
2022/12/05 03:38:29;;;;;;;14.40;10.43;;;10.70;82.30;;;;;;5037826;28;20025;-81
2022/12/05 03:41:02;;;;;;;13.13;9.18;;;10.70;82.40;;;;;;5035374;28;20018;-82
2022/12/05 03:43:58;;;;;;;13.98;9.82;;;10.70;82.50;;;;;;5031115;28;20021;-81
2022/12/05 03:46:28;;;;;;;12.68;9.18;;;10.70;82.60;;;;;;5035236;28;20055;-82
2022/12/05 03:48:56;;;;;;;13.88;9.82;;;10.70;82.70;;;;;;5037143;28;20018;-82
2022/12/05 03:51:29;;;;;;;12.80;9.68;;;10.70;82.70;;;;;;5036257;28;20087;-81
2022/12/05 03:54:11;;;;;;;13.43;9.80;;;10.70;82.70;;;;;;5034220;28;20496;-82
2022/12/05 03:56:46;;;;;;;13.63;10.10;;;10.60;82.60;;;;;;5031891;28;20033;-82
2022/12/05 03:59:44;;;;;;;13.35;10.07;;;10.60;82.60;;;;;;5033508;28;20120;-83
2022/12/05 04:02:15;;;;;;;14.38;9.75;;;10.60;82.60;;;;;;5033799;28;20057;-82
2022/12/05 04:05:04;;;;;;;13.98;9.40;;;10.60;82.80;;;;;;5032440;28;20048;-81
2022/12/05 04:07:33;;;;;;;13.55;9.68;;;10.60;82.70;;;;;;5022794;28;20150;-82
2022/12/05 04:10:03;;;;;;;12.98;9.15;;;10.60;82.70;;;;;;5034271;28;20029;-81
2022/12/05 04:12:31;;;;;;;12.68;9.05;;;10.60;82.70;;;;;;5036186;28;20022;-81
2022/12/05 04:15:09;;;;;;;13.18;9.32;;;10.60;82.80;;;;;;5034117;28;20056;-81
2022/12/05 04:17:53;;;;;;;13.48;9.55;;;10.60;82.70;;;;;;5033324;28;20026;-81
2022/12/05 04:23:18;;;;;;;12.60;9.45;;;10.60;82.80;;;;;;5033979;28;20045;-81
2022/12/05 04:26:02;;;;;;;12.75;8.90;;;10.60;82.80;;;;;;5034402;28;20079;-81
2022/12/05 04:28:42;;;;;;;13.55;9.50;;;10.60;82.80;;;;;;5034851;28;20089;-82
2022/12/05 04:31:24;;;;;;;13.68;9.38;;;10.60;82.80;;;;;;5033718;28;20036;-81
2022/12/05 04:34:04;;;;;;;12.05;9.20;;;10.60;82.80;;;;;;5032417;28;20442;-81
2022/12/05 04:36:39;;;;;;;13.65;9.50;;;10.60;82.80;;;;;;5033519;28;20124;-82
2022/12/05 04:39:32;;;;;;;13.05;9.35;;;10.60;82.80;;;;;;5029946;28;20392;-81
2022/12/05 04:42:04;;;;;;;13.18;9.40;;;10.60;82.80;;;;;;5031850;28;20490;-82
2022/12/05 04:44:35;;;;;;;12.82;9.25;;;10.60;82.80;;;;;;5032849;28;20503;-81
2022/12/05 04:47:03;;;;;;;12.77;9.27;;;10.60;82.80;;;;;;5033283;28;20029;-82
2022/12/05 04:49:31;;;;;;;12.10;8.95;;;10.60;82.90;;;;;;5032812;28;20049;-80
2022/12/05 04:52:02;;;;;;;12.27;9.15;;;10.60;82.80;;;;;;5033433;28;20401;-81
2022/12/05 04:54:37;;;;;;;12.05;8.75;;;10.60;82.70;;;;;;5031606;28;20030;-81
2022/12/05 04:57:32;;;;;;;12.43;8.80;;;10.60;82.70;;;;;;5033042;28;20030;-81
2022/12/05 04:59:58;;;;;;;13.75;8.95;;;10.60;82.90;;;;;;5033606;28;20061;-83
2022/12/05 05:02:43;;;;;;;12.35;9.18;;;10.60;82.90;;;;;;5033556;28;20059;-82
2022/12/05 05:05:10;;;;;;;12.73;9.27;;;10.60;82.80;;;;;;5037877;28;20428;-82
2022/12/05 05:07:50;;;;;;;12.95;9.35;;;10.60;82.80;;;;;;5036956;28;20021;-81
2022/12/05 05:10:29;;;;;;;11.82;8.93;;;10.60;82.80;;;;;;5036700;28;20026;-82
2022/12/05 05:12:55;;;;;;;13.15;8.98;;;10.60;82.80;;;;;;5039095;28;20022;-82
2022/12/05 05:15:20;;;;;;;13.15;9.18;;;10.60;82.70;;;;;;5038773;28;20515;-83
2022/12/05 05:17:46;;;;;;;10.85;8.05;;;10.60;82.60;;;;;;5040649;28;20087;-83
2022/12/05 05:20:23;;;;;;;13.75;9.68;;;10.60;82.50;;;;;;5040302;28;20021;-80
2022/12/05 05:22:50;;;;;;;12.23;9.13;;;10.60;82.50;;;;;;5036203;28;20036;-81
2022/12/05 05:25:17;;;;;;;11.45;8.60;;;10.60;82.50;;;;;;5040248;28;20021;-80
2022/12/05 05:27:42;;;;;;;12.40;9.73;;;10.60;82.40;;;;;;5037797;28;20646;-80
2022/12/05 05:30:08;;;;;;;12.10;8.95;;;10.60;82.40;;;;;;5036526;28;20021;-81
2022/12/05 05:32:34;;;;;;;12.93;8.70;;;10.60;82.40;;;;;;5018585;28;20057;-83
2022/12/05 05:34:59;;;;;;;12.07;8.70;;;10.60;82.40;;;;;;5033433;28;20061;-83
2022/12/05 05:37:25;;;;;;;13.77;9.55;;;10.60;82.40;;;;;;5017992;28;20529;-80
2022/12/05 05:39:51;;;;;;;12.30;9.00;;;10.60;82.40;;;;;;5035270;28;20034;-82
2022/12/05 05:42:16;;;;;;;12.93;8.98;;;10.60;82.40;;;;;;5031339;28;20033;-81
2022/12/05 05:44:42;;;;;;;12.70;9.13;;;10.60;82.40;;;;;;5032765;28;20103;-79
2022/12/05 05:47:07;;;;;;;11.93;9.15;;;10.60;82.30;;;;;;5034208;28;20508;-79
2022/12/05 05:49:33;;;;;;;12.90;9.30;;;10.60;82.40;;;;;;5035954;28;20040;-81
2022/12/05 05:51:58;;;;;;;13.00;9.20;;;10.60;82.50;;;;;;5037597;28;20026;-82
2022/12/05 05:54:24;;;;;;;13.35;9.18;;;10.60;82.50;;;;;;5039479;28;20501;-83
2022/12/05 05:56:49;;;;;;;12.57;9.15;;;10.40;82.30;;;;;;5039147;28;20091;-82
2022/12/05 05:59:15;;;;;;;11.90;8.70;;;10.80;82.40;;;;;;5038003;28;20032;-80
2022/12/05 06:01:43;;;;;;;13.20;9.00;;;10.60;82.20;;;;;;5035903;28;20039;-81
2022/12/05 06:04:12;;;;;;;11.25;8.65;;;10.60;82.10;;;;;;5035166;28;20013;-81
2022/12/05 06:06:39;;;;;;;15.07;8.60;;;11.70;82.60;;;;;;5036516;28;20033;-81
2022/12/05 06:09:06;;;;;;;13.55;8.65;;;10.70;81.60;;;;;;5034545;28;20021;-81
2022/12/05 06:11:32;;;;;;;12.13;8.85;;;11.70;81.90;;;;;;5034444;28;20277;-79
2022/12/05 06:14:01;;;;;;;12.77;9.23;;;10.70;81.40;;;;;;5030615;28;20490;-81
2022/12/05 06:16:28;;;;;;;13.32;8.68;;;10.70;81.50;;;;;;5037580;28;20022;-82
2022/12/05 06:18:54;;;;;;;13.48;9.02;;;10.70;81.70;;;;;;5049888;28;20026;-82
2022/12/05 06:21:20;;;;;;;13.63;8.63;;;10.60;81.80;;;;;;5037038;28;20038;-83
2022/12/05 06:23:45;;;;;;;13.43;8.80;;;10.60;81.90;;;;;;5038807;28;20029;-82
2022/12/05 06:26:13;;;;;;;12.25;8.60;;;10.60;82.00;;;;;;5038453;28;20044;-81
2022/12/05 06:28:40;;;;;;;13.38;9.30;;;10.60;82.10;;;;;;5037991;28;20547;-83
2022/12/05 06:31:29;;;;;;;14.45;8.75;;;10.60;82.20;;;;;;5034374;28;20025;-82
2022/12/05 06:33:58;;;;;;;12.18;8.30;;;10.60;82.30;;;;;;5048417;28;20017;-82
2022/12/05 06:36:23;;;;;;;11.77;8.20;;;10.60;82.40;;;;;;5034762;28;20501;-81
2022/12/05 06:38:49;;;;;;;11.20;8.40;;;10.60;82.40;;;;;;5037171;28;20033;-81
2022/12/05 06:41:16;;;;;;;13.55;8.73;;;10.60;82.50;;;;;;5026412;28;20041;-82
2022/12/05 06:43:42;;;;;;;13.35;8.90;;;10.60;82.50;;;;;;5025077;28;20022;-80
2022/12/05 06:46:09;;;;;;;12.60;8.43;;;10.60;82.50;;;;;;5038138;28;20024;-81
2022/12/05 06:48:36;;;;;;;12.18;8.38;;;10.60;82.60;;;;;;5036127;28;20076;-81
2022/12/05 06:51:02;;;;;;;11.88;8.77;;;10.60;82.60;;;;;;5027435;28;20034;-81
2022/12/05 06:53:28;;;;;;;10.93;8.00;;;10.60;82.60;;;;;;5033984;28;20029;-80
2022/12/05 06:55:55;;;;;;;12.43;8.23;;;10.60;82.70;;;;;;5035464;28;20022;-79
2022/12/05 06:58:21;;;;;;;12.63;8.40;;;10.60;82.60;;;;;;5034551;28;20400;-80
2022/12/05 07:03:31;;;;;;;12.32;8.20;;;10.60;82.60;;;;;;5023315;28;20053;-81
2022/12/05 07:06:00;;;;;;;12.35;8.35;;;10.50;82.60;;;;;;5021863;28;20017;-79
2022/12/05 07:08:25;;;;;;;12.07;9.00;;;10.50;82.60;;;;;;5035564;28;20032;-82
2022/12/05 07:10:51;;;;;;;11.02;8.10;;;10.50;82.60;;;;;;5034508;28;20033;-81
2022/12/05 07:13:17;;;;;;;12.48;8.40;;;10.50;82.60;;;;;;5031410;28;20017;-80
2022/12/05 07:15:46;;;;;;;11.82;8.20;;;10.50;82.80;;;;;;5034931;28;20128;-82
2022/12/05 07:18:12;;;;;;;11.30;8.23;;;10.50;82.70;;;;;;5035004;28;20122;-81
2022/12/05 07:20:38;;;;;;;11.13;7.80;;;10.50;82.60;;;;;;5026648;28;20083;-81
2022/12/05 07:23:03;;;;;;;11.93;8.52;;;10.50;82.70;;;;;;5034103;28;20025;-82
2022/12/05 07:25:29;;;;;;;12.75;8.30;;;10.50;82.70;;;;;;5034856;28;20025;-82
2022/12/05 07:27:54;;;;;;;11.10;8.05;;;10.50;82.70;;;;;;5034368;28;20374;-78
2022/12/05 07:30:20;;;;;;;10.45;8.10;;;10.50;82.70;;;;;;5033367;28;20022;-81
2022/12/05 07:32:45;;;;;;;11.63;8.45;;;10.50;82.70;;;;;;5034684;28;20025;-77
2022/12/05 07:35:11;;;;;;;12.40;8.65;;;10.50;82.70;;;;;;5034184;28;20032;-81
2022/12/05 07:37:36;;;;;;;11.52;7.88;;;10.50;82.70;;;;;;5032490;28;20393;-83
2022/12/05 07:40:02;;;;;;;11.98;8.35;;;10.50;82.70;;;;;;5034022;28;20496;-83
2022/12/05 07:42:28;;;;;;;11.35;7.93;;;10.50;82.70;;;;;;5035101;28;20029;-82
2022/12/05 07:44:53;;;;;;;10.65;8.02;;;10.50;82.70;;;;;;5037839;28;20029;-82
2022/12/05 07:47:19;;;;;;;11.20;8.20;;;10.50;82.70;;;;;;5039701;28;20125;-83
2022/12/05 07:49:44;;;;;;;11.05;7.82;;;10.50;82.70;;;;;;5038342;28;20032;-83
2022/12/05 07:52:10;;;;;;;12.48;8.65;;;10.50;82.70;;;;;;5039530;28;20033;-83
2022/12/05 07:54:35;;;;;;;11.40;7.97;;;10.50;82.70;;;;;;5037253;28;20033;-83
2022/12/05 07:57:01;;;;;;;10.75;7.43;;;10.50;82.70;;;;;;5036326;28;20029;-81
2022/12/05 07:59:26;;;;;;;10.52;7.50;;;10.50;82.60;;;;;;5036454;28;20060;-81
2022/12/05 08:01:52;;;;;;;10.25;7.47;;;10.60;82.70;;;;;;5037983;28;20077;-82
2022/12/05 08:04:17;;;;;;;10.20;7.38;;;10.50;82.70;;;;;;5036627;28;20033;-81
2022/12/05 08:06:43;;;;;;;10.82;7.75;;;10.50;82.70;;;;;;5035947;28;20030;-81
2022/12/05 08:09:09;;;;;;;11.13;8.10;;;10.50;82.70;;;;;;5035959;28;20033;-82
2022/12/05 08:11:35;;;;;;;11.05;7.47;;;10.50;82.70;;;;;;5034756;28;20044;-79
2022/12/05 08:14:02;;;;;;;11.50;7.72;;;10.50;82.70;;;;;;5019407;28;20033;-80
2022/12/05 08:16:29;;;;;;;10.85;7.82;;;10.50;82.70;;;;;;5033825;28;20025;-80
2022/12/05 08:19:03;;;;;;;10.70;7.85;;;10.50;82.70;;;;;;5033990;28;20025;-80
2022/12/05 08:21:29;;;;;;;11.32;7.72;;;10.50;82.70;;;;;;5032838;28;20025;-77
2022/12/05 08:23:55;;;;;;;10.50;7.40;;;10.50;82.70;;;;;;5032524;28;20034;-81
2022/12/05 08:26:29;;;;;;;10.82;7.60;;;10.50;82.60;;;;;;5033124;28;20087;-81
2022/12/05 08:28:58;;;;;;;11.20;7.90;;;10.50;82.60;;;;;;5034863;28;20040;-79
2022/12/05 08:31:24;;;;;;;10.13;7.55;;;10.50;82.70;;;;;;5022736;28;20045;-79
2022/12/05 08:33:51;;;;;;;10.23;7.57;;;10.50;82.70;;;;;;5028719;28;20028;-82
2022/12/05 08:36:17;;;;;;;12.02;8.27;;;10.50;82.80;;;;;;5043195;28;20029;-84
2022/12/05 08:38:43;;;;;;;10.13;7.30;;;10.60;83.00;;;;;;5039404;28;20396;-83
2022/12/05 08:41:15;;;;;;;11.15;7.30;;;10.60;82.90;;;;;;5026746;28;20030;-84
2022/12/05 08:43:41;;;;;;;10.95;7.45;;;10.50;82.60;;;;;;5035318;28;20026;-83
2022/12/05 08:46:07;;;;;;;10.38;7.45;;;10.60;82.60;;;;;;5037836;28;20033;-84
2022/12/05 08:48:34;;;;;;;9.82;7.07;;;10.60;82.40;;;;;;5037121;28;20037;-80
2022/12/05 08:51:04;;;;;;;10.13;7.15;;;10.60;82.30;;;;;;5030452;28;20030;-84
2022/12/05 08:53:30;;;;;;;9.88;7.10;;;10.60;82.20;;;;;;5019918;28;20048;-81
2022/12/05 08:56:00;;;;;;;10.63;7.57;;;10.60;82.20;;;;;;5016859;28;20553;-83
2022/12/05 08:58:26;;;;;;;10.98;7.65;;;10.60;82.20;;;;;;5035633;28;20032;-84
2022/12/05 09:00:52;;;;;;;10.82;7.75;;;10.60;82.20;;;;;;5026726;28;20117;-83
2022/12/05 09:03:17;;;;;;;10.25;7.32;;;10.60;82.20;;;;;;5019629;28;20022;-84
2022/12/05 09:05:43;;;;;;;10.38;7.10;;;10.60;82.30;;;;;;5019591;28;20029;-84
2022/12/05 09:08:08;;;;;;;9.70;6.93;;;10.60;82.40;;;;;;5019016;28;20018;-83
2022/12/05 09:10:34;;;;;;;10.40;7.20;;;10.60;82.50;;;;;;5028643;28;20041;-83
2022/12/05 09:12:59;;;;;;;10.15;7.25;;;10.50;82.50;;;;;;5018396;28;20026;-83
2022/12/05 09:15:25;;;;;;;9.60;6.97;;;10.50;82.60;;;;;;5031668;28;20026;-83
2022/12/05 09:17:50;;;;;;;10.35;7.30;;;10.50;82.70;;;;;;5038280;28;20025;-83
2022/12/05 09:20:17;;;;;;;10.38;6.88;;;10.50;82.70;;;;;;5035129;28;20045;-82
2022/12/05 09:22:42;;;;;;;10.38;7.45;;;10.50;82.70;;;;;;5036875;28;20022;-83
2022/12/05 09:25:08;;;;;;;10.25;7.43;;;10.50;82.80;;;;;;5034401;28;20044;-83
2022/12/05 09:27:34;;;;;;;10.35;7.15;;;10.50;82.80;;;;;;5039029;28;20037;-84
2022/12/05 09:30:00;;;;;;;9.63;7.07;;;10.50;82.70;;;;;;5035678;28;20018;-81
2022/12/05 09:32:25;;;;;;;9.30;6.40;;;10.50;82.80;;;;;;5022162;28;20036;-80
2022/12/05 09:34:51;;;;;;;10.30;6.80;;;10.50;82.80;;;;;;5039567;28;20017;-83
2022/12/05 09:37:17;;;;;;;9.75;6.82;;;10.50;82.80;;;;;;5041028;28;20030;-80
2022/12/05 09:39:43;;;;;;;9.43;6.85;;;10.60;82.80;;;;;;5039207;28;20049;-83
2022/12/05 09:42:24;;;;;;;10.00;7.00;;;10.50;82.80;;;;;;5028852;28;20033;-82
2022/12/05 09:45:41;;;;;;;10.13;7.35;;;10.50;82.80;;;;;;5038770;28;20107;-80
2022/12/05 09:48:20;;;;;;;11.10;7.00;;;10.50;82.80;;;;;;5048039;28;20026;-80
2022/12/05 09:50:51;;;;;;;10.25;6.82;;;10.50;82.80;;;;;;5035409;28;20117;-84
2022/12/05 09:53:26;;;;;;;10.03;6.67;;;10.50;82.80;;;;;;5040893;28;20497;-83
2022/12/05 09:56:25;;;;;;;9.32;6.68;;;10.50;82.80;;;;;;5029651;28;20737;-84
2022/12/05 09:58:53;;;;;;;10.10;7.07;;;10.50;82.70;;;;;;5034390;28;20089;-84
2022/12/05 10:01:24;;;;;;;9.70;7.00;;;10.50;82.70;;;;;;5027763;28;20058;-83
2022/12/05 10:04:16;;;;;;;10.00;7.28;;;10.50;82.80;;;;;;5038649;28;20098;-83
2022/12/05 10:07:16;;;;;;;9.95;7.07;;;10.50;82.80;;;;;;5037432;28;20026;-82
2022/12/05 10:09:50;;;;;;;9.43;6.65;;;10.50;82.70;;;;;;5036628;28;20033;-83
2022/12/05 10:12:21;;;;;;;9.18;6.55;;;10.50;82.60;;;;;;5024888;28;20101;-82
2022/12/05 10:15:00;;;;;;;10.30;6.80;;;10.50;82.50;;;;;;5033503;28;20049;-83
2022/12/05 10:17:35;;;;;;;9.02;6.35;;;10.50;82.50;;;;;;5037024;28;20036;-82
2022/12/05 10:20:18;;;;;;;9.38;6.53;;;10.50;82.50;;;;;;5034928;28;20061;-83
2022/12/05 10:22:53;;;;;;;8.90;6.38;;;10.50;82.50;;;;;;5026733;28;20025;-83
2022/12/05 10:25:20;;;;;;;9.40;6.60;;;10.50;82.50;;;;;;5040091;28;20025;-83
2022/12/05 10:27:56;;;;;;;8.50;6.07;;;10.50;82.50;;;;;;5041460;28;20032;-83
2022/12/05 10:30:24;;;;;;;9.73;6.70;;;10.50;82.50;;;;;;5037914;28;20505;-83
2022/12/05 10:32:57;;;;;;;9.13;6.75;;;10.50;82.50;;;;;;5040133;28;20029;-82
2022/12/05 10:35:38;;;;;;;9.85;7.18;;;10.50;82.50;;;;;;5039320;28;20029;-83
2022/12/05 10:38:09;;;;;;;9.45;6.82;;;10.50;82.50;;;;;;5040272;28;20080;-82
2022/12/05 10:40:38;;;;;;;9.18;6.38;;;10.50;82.50;;;;;;5034064;28;20026;-82
2022/12/05 10:43:07;;;;;;;9.45;6.57;;;10.50;82.50;;;;;;5035560;28;20022;-82
2022/12/05 10:45:36;;;;;;;10.63;6.80;;;10.50;82.50;;;;;;5031256;28;20461;-83
2022/12/05 10:48:01;;;;;;;10.07;6.60;;;10.50;82.50;;;;;;5038329;28;20022;-83
2022/12/05 10:50:34;;;;;;;9.27;6.45;;;10.50;82.50;;;;;;5036831;28;20104;-82
2022/12/05 10:53:01;;;;;;;9.20;6.53;;;10.50;82.50;;;;;;5037249;28;20094;-83
2022/12/05 10:55:39;;;;;;;9.15;6.50;;;10.50;82.50;;;;;;5035616;28;20051;-83
2022/12/05 10:58:20;;;;;;;9.30;6.47;;;10.50;82.50;;;;;;5013871;28;20045;-83
2022/12/05 11:00:48;;;;;;;10.38;6.25;;;10.50;82.50;;;;;;5016422;28;20444;-83
2022/12/05 11:03:22;;;;;;;9.18;6.45;;;10.50;82.50;;;;;;5036558;28;20140;-83
2022/12/05 11:05:54;;;;;;;10.73;6.35;;;10.50;83.00;;;;;;5026179;28;20089;-83
2022/12/05 11:08:31;;;;;;;9.35;6.10;;;10.50;82.50;;;;;;5037644;28;20022;-83
2022/12/05 11:11:17;;;;;;;8.35;5.95;;;10.50;82.50;;;;;;5034898;28;20547;-82
2022/12/05 11:14:04;;;;;;;8.30;5.95;;;10.50;82.50;;;;;;5034259;28;20048;-82
2022/12/05 11:16:36;;;;;;;9.07;6.40;;;10.50;82.50;;;;;;5036569;28;20505;-82
2022/12/05 11:19:24;;;;;;;8.90;6.25;;;10.50;82.50;;;;;;5036635;28;20029;-81
2022/12/05 11:21:50;;;;;;;9.10;6.47;;;10.50;82.70;;;;;;5027029;28;20117;-82
2022/12/05 11:24:27;;;;;;;8.52;6.28;;;10.50;82.60;;;;;;5026257;28;20029;-82
2022/12/05 11:26:53;;;;;;;8.50;6.05;;;10.50;82.60;;;;;;5035255;28;20022;-83
2022/12/05 11:29:35;;;;;;;9.85;6.57;;;10.50;82.40;;;;;;5030129;28;20401;-82
2022/12/05 11:32:03;;;;;;;8.25;5.95;;;10.60;82.40;;;;;;5015593;28;20030;-83
2022/12/05 11:34:36;;;;;;;10.30;7.13;;;10.60;82.20;;;;;;5017354;28;20025;-82
2022/12/05 11:37:26;;;;;;;8.77;6.60;;;10.60;82.20;;;;;;5022508;28;20057;-82
2022/12/05 11:39:51;;;;;;;8.70;6.50;;;10.60;82.20;;;;;;5032564;28;20045;-82
2022/12/05 11:42:41;;;;;;;8.90;6.45;;;10.60;82.10;;;;;;5014631;28;20433;-83
2022/12/05 11:45:18;;;;;;;8.82;6.47;;;10.60;82.10;;;;;;5016491;28;20026;-82
2022/12/05 11:48:08;;;;;;;8.57;6.18;;;10.60;82.10;;;;;;5016424;28;20397;-81
2022/12/05 11:50:41;;;;;;;9.05;6.10;;;10.60;82.10;;;;;;5016170;28;20163;-82
2022/12/05 11:53:29;;;;;;;8.02;5.72;;;10.60;82.20;;;;;;5031059;28;20052;-82
2022/12/05 11:56:11;;;;;;;8.35;5.85;;;10.60;82.30;;;;;;5016173;28;20018;-82
2022/12/05 11:59:01;;;;;;;8.80;6.22;;;10.50;82.40;;;;;;5032771;28;20022;-82
2022/12/05 12:02:11;;;;;;;9.75;6.18;;;10.50;82.40;;;;;;5026625;28;20033;-82
2022/12/05 12:04:50;;;;;;;8.15;6.15;;;10.50;82.50;;;;;;5037436;28;20021;-82
2022/12/05 12:07:57;;;;;;;8.25;5.90;;;10.50;82.50;;;;;;5034925;28;20021;-82
2022/12/05 12:10:47;;;;;;;8.13;5.80;;;10.50;82.50;;;;;;5034804;28;20030;-83
2022/12/05 12:13:15;;;;;;;8.20;5.80;;;10.50;82.60;;;;;;5024701;28;20022;-84
2022/12/05 12:15:45;;;;;;;7.68;5.57;;;10.50;82.60;;;;;;5022004;28;20078;-83
2022/12/05 12:18:32;;;;;;;8.88;6.03;;;10.50;82.60;;;;;;5034612;28;20155;-84
2022/12/05 12:21:19;;;;;;;9.50;6.32;;;10.50;82.60;;;;;;5027167;28;20489;-84
2022/12/05 12:24:04;;;;;;;9.30;5.63;;;10.50;82.70;;;;;;5030151;28;20017;-84
2022/12/05 12:26:54;;;;;;;8.90;5.95;;;10.50;82.60;;;;;;5035519;28;20017;-82
2022/12/05 12:29:40;;;;;;;8.52;5.90;;;10.50;82.60;;;;;;5036232;28;20022;-82
2022/12/05 12:32:30;;;;;;;8.25;5.90;;;10.50;82.70;;;;;;5018264;28;20038;-83
2022/12/05 12:35:25;;;;;;;8.23;5.72;;;10.40;82.60;;;;;;5025213;28;20478;-84
2022/12/05 12:37:57;;;;;;;8.73;6.07;;;10.50;82.70;;;;;;5034781;28;20068;-84
2022/12/05 12:40:53;;;;;;;9.10;6.05;;;10.40;82.60;;;;;;5031150;28;20034;-82
2022/12/05 12:43:33;;;;;;;8.40;5.72;;;10.50;82.70;;;;;;5035351;28;20052;-82
2022/12/05 12:46:05;;;;;;;8.25;5.72;;;10.40;82.60;;;;;;5037024;28;20104;-82
2022/12/05 12:48:58;;;;;;;7.13;5.40;;;10.50;82.70;;;;;;5035299;28;20032;-85
2022/12/05 12:51:24;;;;;;;8.27;6.00;;;10.50;82.70;;;;;;5033404;28;20489;-82
2022/12/05 12:54:21;;;;;;;7.80;5.65;;;10.40;82.60;;;;;;5023706;28;20029;-84
2022/12/05 12:57:29;;;;;;;8.52;5.60;;;10.50;82.70;;;;;;5015492;28;20034;-85
2022/12/05 13:00:23;;;;;;;7.50;5.75;;;10.50;82.70;;;;;;5033135;28;20049;-83
2022/12/05 13:02:56;;;;;;;7.97;5.50;;;10.50;82.70;;;;;;5024739;28;20057;-84
2022/12/05 13:05:30;;;;;;;8.13;5.90;;;10.50;82.60;;;;;;5048469;28;20025;-83
2022/12/05 13:08:15;;;;;;;8.13;5.97;;;10.50;82.70;;;;;;5048014;28;20016;-83
2022/12/05 13:10:44;;;;;;;8.30;5.57;;;10.50;82.60;;;;;;5040427;28;20073;-83